Time;durP1;ratioP1;P1;durP2;ratioP2;P2;SDS_P1;SDS_P2;PMS_P1;PMS_P2;Temp;Humidity;BMP_temperature;BMP_pressure;BME280_temperature;BME280_humidity;BME280_pressure;Samples;Min_cycle;Max_cycle;Signal;HPM_P1;HPM_P2
2021/04/29 00:00:20;;;;;;;13.77;9.90;;;;;;;;;;5037302;28;20046;-91
2021/04/29 00:02:47;;;;;;;13.80;10.23;;;;;;;;;;5036771;28;20434;-91
2021/04/29 00:05:14;;;;;;;14.43;9.13;;;;;;;;;;5037442;28;20396;-90
2021/04/29 00:07:41;;;;;;;13.52;8.70;;;;;;;;;;5037582;28;20335;-89
2021/04/29 00:10:08;;;;;;;11.85;9.10;;;;;;;;;;5037824;28;20033;-89
2021/04/29 00:12:34;;;;;;;15.32;9.70;;;;;;;;;;5036632;28;20057;-86
2021/04/29 00:15:00;;;;;;;13.23;9.77;;;;;;;;;;5036558;28;20022;-86
2021/04/29 00:17:26;;;;;;;14.63;9.43;;;;;;;;;;5037423;28;20032;-86
2021/04/29 00:19:53;;;;;;;15.65;9.82;;;;;;;;;;5037163;28;20028;-88
2021/04/29 00:22:19;;;;;;;12.20;9.57;;;;;;;;;;5036639;28;20119;-87
2021/04/29 00:24:45;;;;;;;12.00;8.43;;;;;;;;;;5036875;28;20033;-88
2021/04/29 00:27:11;;;;;;;11.85;8.32;;;;;;;;;;5037624;28;20026;-89
2021/04/29 00:29:37;;;;;;;12.73;9.00;;;;;;;;;;5036550;28;20351;-88
2021/04/29 00:32:03;;;;;;;11.85;8.68;;;;;;;;;;5036615;28;20037;-89
2021/04/29 00:34:29;;;;;;;13.93;8.65;;;;;;;;;;5037634;28;20025;-89
2021/04/29 00:36:55;;;;;;;10.77;8.35;;;;;;;;;;5037261;28;20065;-89
2021/04/29 00:39:59;;;;;;;11.65;8.38;;;;;;;;;;5037166;28;20022;-89
2021/04/29 00:42:25;;;;;;;11.52;8.73;;;;;;;;;;5036321;28;20064;-90
2021/04/29 00:44:51;;;;;;;10.25;7.78;;;;;;;;;;5037537;28;20021;-91
2021/04/29 00:47:17;;;;;;;10.90;8.35;;;;;;;;;;5037460;28;20408;-91
2021/04/29 00:49:43;;;;;;;13.55;8.10;;;;;;;;;;5038123;28;20404;-91
2021/04/29 00:52:09;;;;;;;9.65;7.38;;;;;;;;;;5041184;28;20029;-91
2021/04/29 00:54:35;;;;;;;11.05;8.43;;;;;;;;;;5039912;28;20032;-91
2021/04/29 00:57:01;;;;;;;9.77;7.78;;;;;;;;;;5040785;28;20026;-90
2021/04/29 00:59:28;;;;;;;11.48;8.95;;;;;;;;;;5039500;28;20113;-92
2021/04/29 01:02:00;;;;;;;10.00;8.20;;;;;;;;;;5040880;28;20080;-88
2021/04/29 01:04:27;;;;;;;11.77;7.82;;;;;;;;;;5039918;28;20104;-90
2021/04/29 01:06:56;;;;;;;10.00;7.60;;;;;;;;;;5040910;28;20017;-90
2021/04/29 01:09:27;;;;;;;10.25;7.50;;;;;;;;;;5040897;28;20026;-87
2021/04/29 01:12:06;;;;;;;12.38;8.80;;;;;;;;;;5039766;28;20025;-88
2021/04/29 01:14:34;;;;;;;9.00;7.57;;;;;;;;;;5039633;28;20319;-89
2021/04/29 01:17:00;;;;;;;11.90;8.43;;;;;;;;;;5040775;28;20029;-88
2021/04/29 01:19:35;;;;;;;9.52;7.65;;;;;;;;;;5040349;28;20022;-89
2021/04/29 01:22:01;;;;;;;10.93;7.95;;;;;;;;;;5040074;28;20049;-88
2021/04/29 01:27:31;;;;;;;11.23;8.50;;;;;;;;;;5040683;28;20067;-89
2021/04/29 01:29:57;;;;;;;10.40;7.30;;;;;;;;;;5040246;28;20030;-88
2021/04/29 01:32:23;;;;;;;10.98;8.23;;;;;;;;;;5040516;28;20358;-89
2021/04/29 01:34:49;;;;;;;10.05;8.15;;;;;;;;;;5040126;28;20071;-89
2021/04/29 01:37:15;;;;;;;12.13;8.20;;;;;;;;;;5040171;28;20029;-83
2021/04/29 01:39:42;;;;;;;10.93;8.27;;;;;;;;;;5039765;28;20051;-88
2021/04/29 01:42:08;;;;;;;11.68;8.50;;;;;;;;;;5040236;28;20025;-87
2021/04/29 01:44:35;;;;;;;11.18;8.50;;;;;;;;;;5040263;28;20022;-89
2021/04/29 01:47:01;;;;;;;10.35;8.20;;;;;;;;;;5040324;28;20025;-90
2021/04/29 01:49:27;;;;;;;10.15;8.23;;;;;;;;;;5040169;28;20043;-86
2021/04/29 01:51:53;;;;;;;11.35;8.27;;;;;;;;;;5040014;28;20059;-87
2021/04/29 01:54:21;;;;;;;13.23;8.95;;;;;;;;;;5039757;28;20446;-85
2021/04/29 01:56:48;;;;;;;11.90;8.75;;;;;;;;;;5040244;28;20030;-88
2021/04/29 01:59:15;;;;;;;12.25;8.80;;;;;;;;;;5039450;28;20423;-88
2021/04/29 02:01:42;;;;;;;13.75;9.30;;;;;;;;;;5038996;28;20136;-87
2021/04/29 02:04:09;;;;;;;13.77;9.70;;;;;;;;;;5039718;28;20101;-86
2021/04/29 02:06:36;;;;;;;14.13;8.65;;;;;;;;;;5039459;28;20025;-87
2021/04/29 02:09:02;;;;;;;11.98;9.48;;;;;;;;;;5039408;28;20029;-88
2021/04/29 02:12:06;;;;;;;13.88;9.38;;;;;;;;;;5039314;28;20412;-86
2021/04/29 02:14:34;;;;;;;12.48;9.50;;;;;;;;;;5018116;28;20507;-88
2021/04/29 02:17:02;;;;;;;12.98;9.82;;;;;;;;;;5001689;28;20066;-87
2021/04/29 02:19:29;;;;;;;15.40;10.05;;;;;;;;;;5017878;28;20356;-88
2021/04/29 02:21:56;;;;;;;15.02;9.93;;;;;;;;;;5017537;28;20056;-85
2021/04/29 02:24:22;;;;;;;12.80;9.45;;;;;;;;;;5017658;28;20026;-86
2021/04/29 02:29:52;;;;;;;13.70;9.40;;;;;;;;;;5017877;28;20036;-85
2021/04/29 02:32:19;;;;;;;14.30;10.55;;;;;;;;;;5017364;28;20085;-86
2021/04/29 02:34:46;;;;;;;14.10;9.95;;;;;;;;;;5017639;28;20033;-86
2021/04/29 02:37:14;;;;;;;13.30;9.50;;;;;;;;;;5017541;28;20021;-86
2021/04/29 02:39:41;;;;;;;12.88;9.82;;;;;;;;;;5017390;28;20129;-85
2021/04/29 02:42:08;;;;;;;12.85;9.60;;;;;;;;;;5000914;28;20030;-85
2021/04/29 02:44:35;;;;;;;14.07;9.48;;;;;;;;;;5021918;28;20033;-85
2021/04/29 02:47:01;;;;;;;13.43;9.77;;;;;;;;;;5038536;28;20308;-84
2021/04/29 02:49:28;;;;;;;14.35;9.25;;;;;;;;;;5038669;28;20018;-88
2021/04/29 02:51:54;;;;;;;15.25;9.38;;;;;;;;;;5039119;28;20029;-89
2021/04/29 02:54:22;;;;;;;13.00;9.60;;;;;;;;;;5037980;28;20060;-86
2021/04/29 02:56:48;;;;;;;11.77;8.43;;;;;;;;;;5037825;28;20336;-86
2021/04/29 02:59:14;;;;;;;11.70;8.60;;;;;;;;;;5037723;28;20048;-86
2021/04/29 03:01:42;;;;;;;11.50;8.70;;;;;;;;;;5038280;28;20416;-86
2021/04/29 03:04:08;;;;;;;12.93;8.57;;;;;;;;;;5038706;28;20092;-86
2021/04/29 03:06:35;;;;;;;11.75;8.85;;;;;;;;;;5038586;28;20026;-86
2021/04/29 03:09:01;;;;;;;12.70;8.65;;;;;;;;;;5038601;28;20021;-86
2021/04/29 03:11:45;;;;;;;10.23;8.40;;;;;;;;;;5038083;28;20026;-87
2021/04/29 03:14:11;;;;;;;12.27;9.02;;;;;;;;;;5037501;28;20481;-87
2021/04/29 03:16:37;;;;;;;12.02;9.15;;;;;;;;;;5038357;28;20025;-86
2021/04/29 03:19:03;;;;;;;12.23;8.57;;;;;;;;;;5038162;28;20032;-86
2021/04/29 03:21:29;;;;;;;13.27;9.18;;;;;;;;;;5038417;28;20023;-86
2021/04/29 03:23:55;;;;;;;12.35;8.93;;;;;;;;;;5037469;28;20026;-86
2021/04/29 03:29:50;;;;;;;13.27;8.98;;;;;;;;;;5038229;28;20100;-86
2021/04/29 03:32:16;;;;;;;10.57;8.27;;;;;;;;;;5037019;28;20037;-86
2021/04/29 03:34:42;;;;;;;12.52;8.98;;;;;;;;;;5037991;28;20036;-85
2021/04/29 03:37:08;;;;;;;12.05;8.35;;;;;;;;;;5036877;28;20033;-88
2021/04/29 03:39:34;;;;;;;14.40;7.65;;;;;;;;;;5036845;28;20033;-87
2021/04/29 03:45:41;;;;;;;10.93;8.13;;;;;;;;;;5037974;28;20025;-86
2021/04/29 03:48:07;;;;;;;10.25;8.55;;;;;;;;;;5037760;28;20030;-86
2021/04/29 03:50:33;;;;;;;14.80;9.00;;;;;;;;;;5037763;28;20017;-86
2021/04/29 03:53:00;;;;;;;10.57;7.63;;;;;;;;;;5037544;28;20056;-86
2021/04/29 03:55:26;;;;;;;12.05;9.05;;;;;;;;;;5037672;28;20018;-86
2021/04/29 03:57:52;;;;;;;11.88;9.45;;;;;;;;;;5036675;28;20071;-86
2021/04/29 04:00:18;;;;;;;12.00;8.90;;;;;;;;;;5037120;28;20056;-87
2021/04/29 04:02:44;;;;;;;11.57;9.05;;;;;;;;;;5037582;28;20022;-86
2021/04/29 04:05:11;;;;;;;11.05;8.13;;;;;;;;;;5037801;28;20426;-87
2021/04/29 04:07:37;;;;;;;12.38;8.60;;;;;;;;;;5037515;28;20068;-85
2021/04/29 04:10:04;;;;;;;10.23;8.32;;;;;;;;;;5037772;28;20067;-86
2021/04/29 04:12:30;;;;;;;11.25;8.60;;;;;;;;;;5037795;28;20033;-86
2021/04/29 04:14:56;;;;;;;11.00;8.65;;;;;;;;;;5036645;28;20359;-86
2021/04/29 04:17:22;;;;;;;14.00;9.45;;;;;;;;;;5037685;28;20100;-87
2021/04/29 04:19:48;;;;;;;10.48;8.25;;;;;;;;;;5037373;28;20072;-89
2021/04/29 04:22:14;;;;;;;10.23;7.97;;;;;;;;;;5037237;28;20049;-87
2021/04/29 04:24:40;;;;;;;10.30;7.80;;;;;;;;;;5041036;28;20029;-89
2021/04/29 04:27:06;;;;;;;13.32;8.48;;;;;;;;;;5040683;28;20049;-87
2021/04/29 04:29:33;;;;;;;12.63;7.72;;;;;;;;;;5041427;28;20451;-87
2021/04/29 04:31:59;;;;;;;11.95;7.88;;;;;;;;;;5041537;28;20071;-87
2021/04/29 04:34:25;;;;;;;10.85;7.65;;;;;;;;;;5041589;28;20021;-88
2021/04/29 04:36:51;;;;;;;10.60;7.20;;;;;;;;;;5041588;28;20026;-87
2021/04/29 04:39:17;;;;;;;10.85;7.30;;;;;;;;;;5041282;28;20022;-88
2021/04/29 04:47:50;;;;;;;10.85;8.20;;;;;;;;;;5041050;28;20036;-88
2021/04/29 04:50:16;;;;;;;9.20;7.65;;;;;;;;;;5040079;28;20029;-86
2021/04/29 04:52:42;;;;;;;9.48;8.23;;;;;;;;;;5040987;28;20052;-87
2021/04/29 05:04:46;;;;;;;9.50;7.50;;;;;;;;;;5040987;28;20044;-86
2021/04/29 05:07:12;;;;;;;9.98;7.22;;;;;;;;;;5040937;28;20041;-89
2021/04/29 05:09:41;;;;;;;11.25;8.20;;;;;;;;;;5041061;28;20110;-86
2021/04/29 05:12:08;;;;;;;9.55;7.95;;;;;;;;;;5040694;28;20041;-87
2021/04/29 05:14:34;;;;;;;14.73;10.52;;;;;;;;;;5049678;28;20052;-90
2021/04/29 05:17:01;;;;;;;39.33;22.77;;;;;;;;;;5039710;28;20112;-91
2021/04/29 05:19:27;;;;;;;16.92;13.23;;;;;;;;;;5040582;28;20050;-91
2021/04/29 05:21:53;;;;;;;12.43;9.60;;;;;;;;;;5040548;28;20030;-91
2021/04/29 05:24:19;;;;;;;13.02;8.65;;;;;;;;;;5040451;28;20029;-91
2021/04/29 05:29:49;;;;;;;10.60;8.30;;;;;;;;;;5040502;28;20036;-90
2021/04/29 05:32:15;;;;;;;10.73;7.97;;;;;;;;;;5040245;28;20030;-92
2021/04/29 05:34:41;;;;;;;14.10;8.25;;;;;;;;;;5038535;28;20037;-90
2021/04/29 05:37:07;;;;;;;12.50;8.65;;;;;;;;;;5039526;28;20037;-92
2021/04/29 05:39:33;;;;;;;11.10;7.97;;;;;;;;;;5039058;28;20411;-90
2021/04/29 05:42:18;;;;;;;14.80;10.45;;;;;;;;;;5039947;28;20469;-89
2021/04/29 05:44:44;;;;;;;16.15;11.77;;;;;;;;;;5040331;28;20407;-89
2021/04/29 05:47:10;;;;;;;13.02;10.70;;;;;;;;;;5040183;28;20022;-86
2021/04/29 05:49:36;;;;;;;14.38;10.93;;;;;;;;;;5038653;28;20021;-83
2021/04/29 05:52:02;;;;;;;15.43;10.55;;;;;;;;;;5039841;28;20354;-83
2021/04/29 05:54:28;;;;;;;14.63;10.90;;;;;;;;;;5039531;28;20411;-83
2021/04/29 05:56:57;;;;;;;14.52;11.10;;;;;;;;;;5039585;28;20491;-83
2021/04/29 05:59:23;;;;;;;13.43;9.38;;;;;;;;;;5039391;28;20045;-83
2021/04/29 06:01:49;;;;;;;15.93;12.20;;;;;;;;;;5038360;28;20088;-83
2021/04/29 06:04:15;;;;;;;11.90;9.32;;;;;;;;;;5039332;28;20099;-83
2021/04/29 06:06:41;;;;;;;12.68;9.05;;;;;;;;;;5039219;28;20076;-84
2021/04/29 06:09:07;;;;;;;11.80;8.90;;;;;;;;;;5039614;28;20025;-83
2021/04/29 06:11:33;;;;;;;13.65;9.65;;;;;;;;;;5039615;28;20022;-84
2021/04/29 06:13:59;;;;;;;24.95;11.93;;;;;;;;;;5039080;28;20030;-83
2021/04/29 06:16:26;;;;;;;15.70;10.80;;;;;;;;;;5039153;28;20407;-89
2021/04/29 06:18:53;;;;;;;13.52;10.13;;;;;;;;;;5039429;28;20038;-83
2021/04/29 06:21:19;;;;;;;14.30;10.50;;;;;;;;;;5038975;28;20032;-83
2021/04/29 06:23:45;;;;;;;13.73;10.23;;;;;;;;;;5038961;28;20018;-82
2021/04/29 06:26:11;;;;;;;12.65;9.90;;;;;;;;;;5038869;28;20403;-83
2021/04/29 06:28:37;;;;;;;13.98;9.55;;;;;;;;;;5039025;28;20028;-82
2021/04/29 06:31:03;;;;;;;17.48;9.90;;;;;;;;;;5038540;28;20033;-83
2021/04/29 06:33:29;;;;;;;18.33;10.43;;;;;;;;;;5037679;28;20030;-82
2021/04/29 06:35:56;;;;;;;16.92;10.38;;;;;;;;;;5038714;28;20025;-83
2021/04/29 06:38:23;;;;;;;14.63;9.98;;;;;;;;;;5038878;28;20056;-82
2021/04/29 06:41:07;;;;;;;13.38;9.63;;;;;;;;;;5038913;28;20351;-83
2021/04/29 06:43:34;;;;;;;13.38;9.55;;;;;;;;;;5037532;28;20034;-83
2021/04/29 06:46:00;;;;;;;19.88;11.32;;;;;;;;;;5038375;28;20036;-82
2021/04/29 06:48:26;;;;;;;14.60;10.68;;;;;;;;;;5038502;28;20100;-82
2021/04/29 06:50:52;;;;;;;16.17;10.20;;;;;;;;;;5047870;28;20033;-82
2021/04/29 06:53:18;;;;;;;16.27;10.63;;;;;;;;;;5046936;28;20021;-82
2021/04/29 06:55:44;;;;;;;10.50;8.68;;;;;;;;;;5055332;28;20029;-82
2021/04/29 06:58:10;;;;;;;12.88;8.50;;;;;;;;;;5058360;28;20025;-83
2021/04/29 07:00:37;;;;;;;26.67;17.92;;;;;;;;;;5057973;28;20037;-80
2021/04/29 07:03:03;;;;;;;15.60;10.55;;;;;;;;;;5058357;28;20036;-83
2021/04/29 07:05:29;;;;;;;14.57;10.48;;;;;;;;;;5057140;28;20411;-82
2021/04/29 07:07:56;;;;;;;10.65;9.05;;;;;;;;;;5057886;28;20025;-82
2021/04/29 07:10:23;;;;;;;14.50;9.95;;;;;;;;;;5057669;28;20017;-81
2021/04/29 07:12:49;;;;;;;13.73;9.85;;;;;;;;;;5057865;28;20100;-81
2021/04/29 07:15:16;;;;;;;11.18;9.63;;;;;;;;;;5057720;28;20029;-83
2021/04/29 07:17:42;;;;;;;15.60;12.18;;;;;;;;;;5057906;28;20319;-82
2021/04/29 07:20:08;;;;;;;12.50;10.32;;;;;;;;;;5056796;28;20028;-82
2021/04/29 07:22:34;;;;;;;13.38;10.27;;;;;;;;;;5057646;28;20025;-82
2021/04/29 07:25:00;;;;;;;13.93;10.80;;;;;;;;;;5056952;28;20426;-83
2021/04/29 07:27:45;;;;;;;26.90;19.33;;;;;;;;;;5057399;28;20032;-81
2021/04/29 07:30:11;;;;;;;13.77;10.55;;;;;;;;;;5057482;28;20044;-82
2021/04/29 07:32:37;;;;;;;16.08;11.38;;;;;;;;;;5057502;28;20025;-82
2021/04/29 07:35:04;;;;;;;13.15;10.98;;;;;;;;;;5057696;28;20052;-82
2021/04/29 07:37:30;;;;;;;17.55;11.48;;;;;;;;;;5048665;28;20029;-82
2021/04/29 07:39:56;;;;;;;20.30;13.13;;;;;;;;;;5036272;28;20075;-82
2021/04/29 07:42:22;;;;;;;15.00;11.90;;;;;;;;;;5037663;28;20029;-82
2021/04/29 07:44:48;;;;;;;16.77;12.13;;;;;;;;;;5053005;28;20022;-83
2021/04/29 07:47:14;;;;;;;20.52;13.70;;;;;;;;;;5037778;28;20311;-82
2021/04/29 07:49:40;;;;;;;18.17;13.13;;;;;;;;;;5037390;28;20037;-83
2021/04/29 07:52:06;;;;;;;20.90;14.57;;;;;;;;;;5053323;28;20038;-83
2021/04/29 07:54:32;;;;;;;16.25;13.07;;;;;;;;;;5037241;28;20124;-83
2021/04/29 07:56:58;;;;;;;16.38;11.98;;;;;;;;;;5037565;28;20017;-84
2021/04/29 07:59:24;;;;;;;14.70;11.80;;;;;;;;;;5037095;28;20052;-84
2021/04/29 08:01:52;;;;;;;16.30;12.40;;;;;;;;;;5037504;28;20022;-85
2021/04/29 08:04:18;;;;;;;15.48;11.88;;;;;;;;;;5037300;28;20065;-85
2021/04/29 08:06:44;;;;;;;14.80;12.00;;;;;;;;;;5053133;28;20021;-89
2021/04/29 08:09:10;;;;;;;16.77;11.90;;;;;;;;;;5037470;28;20482;-89
2021/04/29 08:11:36;;;;;;;18.20;12.52;;;;;;;;;;5037578;28;20029;-88
2021/04/29 08:14:02;;;;;;;14.65;12.18;;;;;;;;;;5053144;28;20139;-89
2021/04/29 08:16:28;;;;;;;18.08;13.15;;;;;;;;;;5037122;28;20487;-88
2021/04/29 08:18:54;;;;;;;16.17;12.23;;;;;;;;;;5053443;28;20029;-88
2021/04/29 08:21:20;;;;;;;18.83;15.25;;;;;;;;;;5037803;28;20037;-89
2021/04/29 08:23:46;;;;;;;23.58;16.48;;;;;;;;;;5053162;28;20047;-87
2021/04/29 08:26:13;;;;;;;24.98;19.35;;;;;;;;;;5037062;28;20319;-88
2021/04/29 08:28:39;;;;;;;19.38;15.27;;;;;;;;;;5053034;28;20021;-87
2021/04/29 08:31:06;;;;;;;25.58;18.90;;;;;;;;;;5037364;28;20025;-89
2021/04/29 08:33:32;;;;;;;21.77;15.90;;;;;;;;;;5037738;28;20182;-88
2021/04/29 08:35:58;;;;;;;54.58;37.55;;;;;;;;;;5037134;28;20039;-84
2021/04/29 08:38:24;;;;;;;77.90;51.78;;;;;;;;;;5052699;28;20549;-84
2021/04/29 08:40:50;;;;;;;29.60;22.10;;;;;;;;;;5052855;28;20038;-84
2021/04/29 08:43:17;;;;;;;16.98;14.50;;;;;;;;;;5037152;28;20076;-84
2021/04/29 08:45:44;;;;;;;24.45;16.70;;;;;;;;;;5052842;28;20030;-81
2021/04/29 08:48:11;;;;;;;18.95;14.45;;;;;;;;;;5036698;28;20022;-80
2021/04/29 08:50:37;;;;;;;24.33;19.33;;;;;;;;;;5036793;28;20029;-80
2021/04/29 08:53:04;;;;;;;28.63;21.20;;;;;;;;;;5036656;28;20026;-80
2021/04/29 08:55:30;;;;;;;27.15;19.83;;;;;;;;;;5052342;28;20079;-80
2021/04/29 08:57:56;;;;;;;32.20;20.30;;;;;;;;;;5036867;28;20360;-81
2021/04/29 09:00:23;;;;;;;26.02;18.77;;;;;;;;;;5036234;28;20117;-80
2021/04/29 09:02:49;;;;;;;26.00;16.90;;;;;;;;;;5051890;28;20172;-80
2021/04/29 09:05:22;;;;;;;23.23;16.27;;;;;;;;;;5036506;28;20047;-80
2021/04/29 09:08:00;;;;;;;26.58;20.98;;;;;;;;;;5036507;28;20404;-80
2021/04/29 09:10:29;;;;;;;28.08;17.38;;;;;;;;;;5038017;28;20032;-80
2021/04/29 09:12:55;;;;;;;20.85;14.77;;;;;;;;;;5039980;28;20028;-80
2021/04/29 09:15:22;;;;;;;21.77;15.52;;;;;;;;;;5040226;28;20030;-80
2021/04/29 09:18:03;;;;;;;19.02;15.43;;;;;;;;;;5039938;28;20026;-80
2021/04/29 09:20:29;;;;;;;21.52;16.50;;;;;;;;;;5039955;28;20025;-80
2021/04/29 09:23:03;;;;;;;20.10;15.90;;;;;;;;;;5039981;28;20075;-80
2021/04/29 09:25:30;;;;;;;24.52;15.55;;;;;;;;;;5055533;28;20071;-80
2021/04/29 09:27:56;;;;;;;17.92;13.90;;;;;;;;;;5039698;28;20131;-80
2021/04/29 09:30:24;;;;;;;19.05;14.82;;;;;;;;;;5039655;28;20041;-80
2021/04/29 09:32:50;;;;;;;17.20;13.90;;;;;;;;;;5039906;28;20374;-80
2021/04/29 09:35:20;;;;;;;16.77;12.73;;;;;;;;;;5039095;28;20072;-80
2021/04/29 09:37:47;;;;;;;15.85;13.88;;;;;;;;;;5039808;28;20033;-80
2021/04/29 09:40:29;;;;;;;18.40;13.93;;;;;;;;;;5039507;28;20079;-80
2021/04/29 09:42:56;;;;;;;22.25;14.40;;;;;;;;;;5055021;28;20026;-80
2021/04/29 09:45:28;;;;;;;17.42;14.35;;;;;;;;;;5039556;28;20018;-80
2021/04/29 09:47:58;;;;;;;19.50;15.60;;;;;;;;;;5039489;28;20427;-80
2021/04/29 09:50:32;;;;;;;19.90;15.05;;;;;;;;;;5039399;28;20036;-81
2021/04/29 09:53:02;;;;;;;16.42;12.30;;;;;;;;;;5039166;28;20018;-80
2021/04/29 09:55:30;;;;;;;15.75;12.18;;;;;;;;;;5039202;28;20404;-80
2021/04/29 09:58:12;;;;;;;18.40;14.82;;;;;;;;;;5039144;28;20018;-80
2021/04/29 10:00:38;;;;;;;17.85;12.52;;;;;;;;;;5038915;28;20038;-80
2021/04/29 10:03:06;;;;;;;17.75;13.13;;;;;;;;;;5048870;28;20045;-80
2021/04/29 10:05:36;;;;;;;15.38;11.95;;;;;;;;;;5051329;28;20021;-80
2021/04/29 10:08:02;;;;;;;18.95;12.93;;;;;;;;;;5039214;28;20045;-80
2021/04/29 10:10:28;;;;;;;13.57;11.73;;;;;;;;;;5038931;28;20021;-80
2021/04/29 10:12:55;;;;;;;13.20;10.70;;;;;;;;;;5038784;28;20056;-80
2021/04/29 10:15:21;;;;;;;18.42;12.80;;;;;;;;;;5037757;28;20324;-81
2021/04/29 10:17:47;;;;;;;16.98;13.02;;;;;;;;;;5038776;28;20029;-80
2021/04/29 10:20:14;;;;;;;15.85;10.85;;;;;;;;;;5038433;28;20025;-80
2021/04/29 10:22:41;;;;;;;15.55;10.55;;;;;;;;;;5038553;28;20167;-80
2021/04/29 10:25:08;;;;;;;16.50;10.32;;;;;;;;;;5038865;28;20017;-80
2021/04/29 10:27:34;;;;;;;10.90;8.98;;;;;;;;;;5038667;28;20101;-80
2021/04/29 10:30:07;;;;;;;13.45;10.48;;;;;;;;;;5038887;28;20115;-80
2021/04/29 10:32:34;;;;;;;16.08;11.90;;;;;;;;;;5038520;28;20100;-80
2021/04/29 10:35:00;;;;;;;14.15;11.18;;;;;;;;;;5037453;28;20095;-80
2021/04/29 10:37:27;;;;;;;16.00;12.63;;;;;;;;;;5037477;28;20029;-80
2021/04/29 10:40:02;;;;;;;13.68;10.32;;;;;;;;;;5038580;28;20049;-80
2021/04/29 10:42:29;;;;;;;16.55;11.48;;;;;;;;;;5038385;28;20481;-77
2021/04/29 10:45:06;;;;;;;24.98;19.48;;;;;;;;;;5038335;28;20354;-79
2021/04/29 10:47:32;;;;;;;16.80;13.18;;;;;;;;;;5038160;28;20052;-78
2021/04/29 10:50:17;;;;;;;26.10;18.52;;;;;;;;;;5038386;28;20120;-79
2021/04/29 10:52:51;;;;;;;21.05;13.65;;;;;;;;;;5038164;28;20325;-79
2021/04/29 10:55:24;;;;;;;71.88;52.15;;;;;;;;;;5038203;28;20031;-78
2021/04/29 10:57:50;;;;;;;44.60;31.48;;;;;;;;;;5036788;28;20026;-89
2021/04/29 11:00:16;;;;;;;16.13;11.68;;;;;;;;;;5037767;28;20319;-79
2021/04/29 11:02:42;;;;;;;23.52;15.55;;;;;;;;;;5037594;28;20419;-81
2021/04/29 11:05:20;;;;;;;13.43;10.27;;;;;;;;;;5036828;28;20029;-80
2021/04/29 11:07:47;;;;;;;27.98;20.38;;;;;;;;;;5037830;28;20030;-79
2021/04/29 11:10:14;;;;;;;48.60;32.17;;;;;;;;;;5037735;28;20032;-78
2021/04/29 11:13:01;;;;;;;41.72;27.45;;;;;;;;;;5037657;28;20037;-79
2021/04/29 11:15:32;;;;;;;14.38;8.80;;;;;;;;;;5037982;28;20067;-80
2021/04/29 11:18:01;;;;;;;8.77;5.60;;;;;;;;;;5037588;28;20029;-80
2021/04/29 11:20:27;;;;;;;17.10;7.50;;;;;;;;;;5037557;28;20423;-80
2021/04/29 11:22:57;;;;;;;12.75;7.50;;;;;;;;;;5037474;28;20025;-82
2021/04/29 11:25:23;;;;;;;26.50;12.32;;;;;;;;;;5037634;28;20041;-81
2021/04/29 11:27:57;;;;;;;22.17;11.07;;;;;;;;;;5036289;28;20021;-79
2021/04/29 11:30:23;;;;;;;36.70;24.33;;;;;;;;;;5037436;28;20033;-79
2021/04/29 11:32:54;;;;;;;32.60;21.80;;;;;;;;;;5036809;28;20316;-80
2021/04/29 11:35:21;;;;;;;16.50;10.77;;;;;;;;;;5036361;28;20026;-78
2021/04/29 11:37:47;;;;;;;34.55;22.92;;;;;;;;;;5037167;28;20104;-81
2021/04/29 11:40:13;;;;;;;10.18;7.00;;;;;;;;;;5036214;28;20028;-79
2021/04/29 11:42:42;;;;;;;11.75;7.05;;;;;;;;;;5037100;28;20055;-79
2021/04/29 11:45:13;;;;;;;25.30;15.75;;;;;;;;;;5037330;28;20021;-81
2021/04/29 11:47:40;;;;;;;103.35;63.53;;;;;;;;;;5036016;28;20053;-79
2021/04/29 11:50:06;;;;;;;51.88;33.80;;;;;;;;;;5053950;28;20029;-82
2021/04/29 11:52:32;;;;;;;14.57;7.57;;;;;;;;;;5036116;28;20355;-83
2021/04/29 11:54:58;;;;;;;12.90;6.03;;;;;;;;;;5046705;28;20028;-81
2021/04/29 11:57:24;;;;;;;43.83;13.50;;;;;;;;;;5042631;28;20021;-83
2021/04/29 11:59:52;;;;;;;16.40;8.68;;;;;;;;;;5035662;28;20045;-80
2021/04/29 12:02:20;;;;;;;13.75;5.90;;;;;;;;;;5036734;28;20041;-80
2021/04/29 12:04:48;;;;;;;15.48;6.60;;;;;;;;;;5036183;28;20416;-80
2021/04/29 12:07:15;;;;;;;27.58;10.82;;;;;;;;;;5036829;28;20026;-80
2021/04/29 12:09:41;;;;;;;20.08;8.55;;;;;;;;;;5036900;28;20021;-81
2021/04/29 12:12:12;;;;;;;20.67;8.50;;;;;;;;;;5037022;28;20365;-80
2021/04/29 12:14:38;;;;;;;14.90;6.95;;;;;;;;;;5036842;28;20093;-79
2021/04/29 12:17:05;;;;;;;19.98;7.43;;;;;;;;;;5035726;28;20095;-80
2021/04/29 12:19:33;;;;;;;17.40;8.43;;;;;;;;;;5036053;28;20348;-80
2021/04/29 12:22:00;;;;;;;21.27;8.95;;;;;;;;;;5036596;28;20359;-79
2021/04/29 12:24:31;;;;;;;19.38;8.32;;;;;;;;;;5036725;28;20025;-79
2021/04/29 12:26:57;;;;;;;12.93;4.72;;;;;;;;;;5037085;28;20037;-80
2021/04/29 12:29:24;;;;;;;6.28;3.15;;;;;;;;;;5036508;28;20026;-80
2021/04/29 12:31:57;;;;;;;8.07;4.45;;;;;;;;;;5036702;28;20152;-80
2021/04/29 12:34:24;;;;;;;11.38;4.72;;;;;;;;;;5036423;28;20036;-80
2021/04/29 12:36:50;;;;;;;7.63;4.55;;;;;;;;;;5036589;28;20087;-81
2021/04/29 12:39:17;;;;;;;8.98;4.43;;;;;;;;;;5036981;28;20030;-79
2021/04/29 12:41:47;;;;;;;10.55;5.78;;;;;;;;;;5036401;28;20021;-79
2021/04/29 12:44:13;;;;;;;10.30;4.68;;;;;;;;;;5037839;28;20030;-79
2021/04/29 12:46:40;;;;;;;12.48;3.60;;;;;;;;;;5039458;28;20025;-79
2021/04/29 12:49:07;;;;;;;8.15;4.10;;;;;;;;;;5039432;28;20025;-79
2021/04/29 12:51:34;;;;;;;13.93;5.30;;;;;;;;;;5039249;28;20099;-79
2021/04/29 12:54:13;;;;;;;12.25;6.40;;;;;;;;;;5040337;28;20100;-79
2021/04/29 12:56:40;;;;;;;12.88;6.45;;;;;;;;;;5039105;28;20323;-79
2021/04/29 12:59:16;;;;;;;57.17;9.75;;;;;;;;;;5040134;28;20327;-79
2021/04/29 13:01:42;;;;;;;9.63;4.57;;;;;;;;;;5040320;28;20309;-79
2021/04/29 13:04:21;;;;;;;12.45;5.72;;;;;;;;;;5039841;28;20064;-79
2021/04/29 13:06:48;;;;;;;12.80;5.70;;;;;;;;;;5039022;28;20116;-79
2021/04/29 13:09:14;;;;;;;10.02;4.70;;;;;;;;;;5042609;28;20061;-79
2021/04/29 13:11:42;;;;;;;9.98;4.50;;;;;;;;;;5047667;28;20033;-79
2021/04/29 13:14:10;;;;;;;7.43;4.20;;;;;;;;;;5057657;28;20048;-78
2021/04/29 13:16:37;;;;;;;11.00;4.07;;;;;;;;;;5058783;28;20418;-79
2021/04/29 13:19:04;;;;;;;6.57;4.18;;;;;;;;;;5059781;28;20028;-79
2021/04/29 13:21:31;;;;;;;7.22;4.18;;;;;;;;;;5047826;28;20045;-79
2021/04/29 13:23:57;;;;;;;9.82;5.70;;;;;;;;;;5059890;28;20021;-79
2021/04/29 13:26:23;;;;;;;10.80;4.95;;;;;;;;;;5059517;28;20028;-79
2021/04/29 13:28:50;;;;;;;9.07;4.60;;;;;;;;;;5059598;28;20021;-79
2021/04/29 13:31:17;;;;;;;11.02;4.72;;;;;;;;;;5059444;28;20035;-79
2021/04/29 13:33:43;;;;;;;9.18;5.53;;;;;;;;;;5059768;28;20415;-92
2021/04/29 13:36:09;;;;;;;11.95;4.82;;;;;;;;;;5058436;28;20029;-79
2021/04/29 13:38:35;;;;;;;7.82;4.80;;;;;;;;;;5059562;28;20074;-80
2021/04/29 13:41:01;;;;;;;13.95;6.60;;;;;;;;;;5059398;28;20052;-79
2021/04/29 13:43:28;;;;;;;16.27;8.65;;;;;;;;;;5059328;28;20161;-79
2021/04/29 13:45:54;;;;;;;13.00;5.25;;;;;;;;;;5059216;28;20044;-80
2021/04/29 13:48:20;;;;;;;10.10;4.80;;;;;;;;;;5059243;28;20315;-79
2021/04/29 13:50:46;;;;;;;8.63;3.65;;;;;;;;;;5059503;28;20104;-79
2021/04/29 13:53:13;;;;;;;8.13;3.25;;;;;;;;;;5059104;28;20028;-80
2021/04/29 13:55:39;;;;;;;5.53;3.53;;;;;;;;;;5058524;28;20434;-79
2021/04/29 13:58:08;;;;;;;5.43;3.40;;;;;;;;;;5059168;28;20408;-79
2021/04/29 14:00:36;;;;;;;9.63;4.18;;;;;;;;;;5058816;28;20315;-80
2021/04/29 14:03:02;;;;;;;11.40;3.83;;;;;;;;;;5058602;28;20045;-79
2021/04/29 14:05:28;;;;;;;11.10;3.80;;;;;;;;;;5059052;28;20328;-80
2021/04/29 14:07:55;;;;;;;8.48;3.75;;;;;;;;;;5057863;28;20355;-79
2021/04/29 14:10:21;;;;;;;9.98;3.00;;;;;;;;;;5059035;28;20025;-79
2021/04/29 14:12:47;;;;;;;6.25;3.15;;;;;;;;;;5057730;28;20079;-79
2021/04/29 14:15:13;;;;;;;8.15;3.10;;;;;;;;;;5058870;28;20036;-79
2021/04/29 14:17:39;;;;;;;27.17;4.30;;;;;;;;;;5058623;28;20100;-80
2021/04/29 14:20:05;;;;;;;32.38;5.03;;;;;;;;;;5057604;28;20033;-80
2021/04/29 14:22:32;;;;;;;15.32;3.92;;;;;;;;;;5058664;28;20032;-80
2021/04/29 14:24:58;;;;;;;247.10;17.45;;;;;;;;;;5055718;28;20403;-79
2021/04/29 14:27:24;;;;;;;45.60;6.07;;;;;;;;;;5058525;28;20025;-80
2021/04/29 14:29:50;;;;;;;20.17;4.22;;;;;;;;;;5058929;28;20059;-80
2021/04/29 14:32:16;;;;;;;10.40;3.63;;;;;;;;;;5058416;28;20062;-80
2021/04/29 14:34:42;;;;;;;88.90;9.25;;;;;;;;;;5058707;28;20032;-79
2021/04/29 14:37:08;;;;;;;73.35;9.27;;;;;;;;;;5058571;28;20147;-80
2021/04/29 14:39:34;;;;;;;23.70;6.22;;;;;;;;;;5057367;28;20029;-80
2021/04/29 14:42:01;;;;;;;50.38;7.47;;;;;;;;;;5058233;28;20419;-80
2021/04/29 14:44:28;;;;;;;18.40;4.00;;;;;;;;;;5058257;28;20047;-80
2021/04/29 14:46:54;;;;;;;15.02;3.10;;;;;;;;;;5056408;28;20021;-79
2021/04/29 14:49:20;;;;;;;8.45;2.70;;;;;;;;;;5048695;28;20025;-80
2021/04/29 14:51:46;;;;;;;13.02;3.97;;;;;;;;;;5058048;28;20029;-80
2021/04/29 14:54:12;;;;;;;8.98;3.05;;;;;;;;;;5058072;28;20032;-80
2021/04/29 14:56:38;;;;;;;19.98;3.35;;;;;;;;;;5054267;28;20053;-79
2021/04/29 14:59:06;;;;;;;62.15;6.63;;;;;;;;;;5047615;28;20045;-79